Time;durP1;ratioP1;P1;durP2;ratioP2;P2;SDS_P1;SDS_P2;PMS_P1;PMS_P2;Temp;Humidity;BMP_temperature;BMP_pressure;BME280_temperature;BME280_humidity;BME280_pressure;Samples;Min_cycle;Max_cycle;Signal;HPM_P1;HPM_P2
2022/03/25 00:00:44;;;;;;;46.67;27.60;;;;;;;-0.71;59.08;100706.01;1702510;83;21469;-60
2022/03/25 00:03:11;;;;;;;49.98;26.20;;;;;;;-0.70;59.08;100706.47;1695764;83;21347;-60
2022/03/25 00:05:38;;;;;;;46.35;25.52;;;;;;;-0.69;59.19;100705.62;1718173;83;21625;-59
2022/03/25 00:08:05;;;;;;;45.20;25.77;;;;;;;-0.69;59.25;100697.92;1699552;82;21784;-59
2022/03/25 00:10:33;;;;;;;43.95;26.73;;;;;;;-0.69;59.32;100706.90;1719860;83;20975;-59
2022/03/25 00:12:59;;;;;;;46.33;26.65;;;;;;;-0.69;59.45;100703.05;1707077;82;21483;-60
2022/03/25 00:15:26;;;;;;;52.60;26.87;;;;;;;-0.69;59.50;100704.33;1722180;83;20990;-59
2022/03/25 00:17:53;;;;;;;43.13;25.40;;;;;;;-0.70;59.53;100701.34;1709423;83;21089;-59
2022/03/25 00:20:19;;;;;;;46.15;25.82;;;;;;;-0.69;59.54;100700.48;1717770;83;21006;-59
2022/03/25 00:22:47;;;;;;;47.93;25.12;;;;;;;-0.68;59.58;100695.78;1715049;83;20951;-59
2022/03/25 00:25:13;;;;;;;43.42;24.27;;;;;;;-0.65;59.68;100692.83;1719407;81;21079;-59
2022/03/25 00:27:40;;;;;;;41.70;24.10;;;;;;;-0.63;59.69;100691.16;1727637;82;21044;-59
2022/03/25 00:30:08;;;;;;;39.23;25.33;;;;;;;-0.61;59.83;100688.20;1727813;82;20990;-60
2022/03/25 00:32:38;;;;;;;41.23;24.67;;;;;;;-0.59;59.89;100692.91;1725167;82;20978;-59
2022/03/25 00:35:06;;;;;;;45.00;25.48;;;;;;;-0.57;59.85;100684.83;1723824;82;20994;-59
2022/03/25 00:37:33;;;;;;;41.58;25.20;;;;;;;-0.57;59.87;100684.40;1722539;82;21080;-59
2022/03/25 00:39:59;;;;;;;40.97;25.00;;;;;;;-0.57;59.95;100680.55;1718634;82;20975;-59
2022/03/25 00:42:27;;;;;;;41.18;24.85;;;;;;;-0.56;60.00;100677.55;1707371;82;20942;-59
2022/03/25 00:44:55;;;;;;;41.75;24.47;;;;;;;-0.55;60.10;100676.73;1695666;83;21041;-59
2022/03/25 00:47:23;;;;;;;39.75;24.57;;;;;;;-0.54;60.18;100681.02;1726215;82;20962;-59
2022/03/25 00:49:51;;;;;;;49.67;27.00;;;;;;;-0.53;60.23;100673.78;1721977;82;21947;-59
2022/03/25 00:52:18;;;;;;;43.05;25.97;;;;;;;-0.54;60.19;100668.19;1713820;81;20946;-59
2022/03/25 00:54:45;;;;;;;52.15;28.12;;;;;;;-0.58;60.17;100674.13;1715935;82;20985;-60
2022/03/25 00:57:11;;;;;;;51.27;30.27;;;;;;;-0.65;60.20;100669.75;1718215;81;21519;-59
2022/03/25 00:59:38;;;;;;;57.20;31.60;;;;;;;-0.71;60.22;100664.97;1721540;82;21625;-59
2022/03/25 01:02:05;;;;;;;53.87;30.57;;;;;;;-0.79;60.14;100659.30;1718189;82;21458;-59
2022/03/25 01:04:32;;;;;;;55.30;30.40;;;;;;;-0.88;60.17;100662.59;1729144;82;20982;-59
2022/03/25 01:06:59;;;;;;;46.05;27.62;;;;;;;-0.96;60.32;100665.47;1715005;82;21594;-59
2022/03/25 01:09:26;;;;;;;49.77;28.77;;;;;;;-1.00;60.50;100665.00;1717598;82;21006;-59
2022/03/25 01:11:55;;;;;;;46.53;27.42;;;;;;;-1.02;60.63;100655.13;1721710;82;20997;-59
2022/03/25 01:14:22;;;;;;;45.90;26.55;;;;;;;-1.03;60.78;100659.41;1720645;81;21080;-59
2022/03/25 01:16:49;;;;;;;45.10;25.65;;;;;;;-1.02;60.87;100658.98;1734018;81;21074;-59
2022/03/25 01:19:15;;;;;;;53.92;26.85;;;;;;;-1.00;61.06;100665.00;1724334;82;21574;-59
2022/03/25 01:21:42;;;;;;;41.68;26.35;;;;;;;-0.99;61.08;100664.15;1726352;82;21504;-59
2022/03/25 01:24:09;;;;;;;40.88;25.52;;;;;;;-0.99;61.05;100654.75;1729161;81;21089;-59
2022/03/25 01:26:36;;;;;;;44.70;26.97;;;;;;;-0.98;61.12;100655.21;1727863;81;21124;-59
2022/03/25 01:29:04;;;;;;;45.20;27.03;;;;;;;-0.96;61.22;100653.94;1702782;82;21210;-59
2022/03/25 01:31:32;;;;;;;43.87;26.27;;;;;;;-0.95;61.33;100655.67;1721085;82;21257;-59
2022/03/25 01:33:59;;;;;;;41.42;26.60;;;;;;;-0.96;61.30;100651.38;1725663;81;21068;-59
2022/03/25 01:36:26;;;;;;;49.03;27.37;;;;;;;-0.95;61.41;100650.55;1707422;82;21049;-59
2022/03/25 01:38:52;;;;;;;47.20;25.47;;;;;;;-0.96;61.50;100652.66;1714441;82;21204;-59
2022/03/25 01:41:19;;;;;;;46.80;25.85;;;;;;;-0.95;61.64;100651.83;1723504;82;21045;-59
2022/03/25 01:43:55;;;;;;;44.93;26.48;;;;;;;-0.93;61.77;100646.28;1729963;81;20906;-59
2022/03/25 01:46:23;;;;;;;41.88;24.98;;;;;;;-0.93;61.83;100642.44;1715409;82;20978;-59
2022/03/25 01:48:51;;;;;;;42.67;25.45;;;;;;;-0.94;61.77;100647.13;1705283;81;20919;-59
2022/03/25 01:51:34;;;;;;;42.10;26.75;;;;;;;-0.98;61.78;100642.78;1716405;82;21413;-59
2022/03/25 01:54:23;;;;;;;41.83;25.82;;;;;;;-0.99;61.90;100646.20;1714986;81;20934;-59
2022/03/25 01:57:01;;;;;;;39.15;25.48;;;;;;;-1.01;62.04;100642.35;1710447;82;21539;-59
2022/03/25 01:59:28;;;;;;;41.00;25.88;;;;;;;-1.01;62.05;100647.88;1716541;82;20990;-60
2022/03/25 02:01:56;;;;;;;44.85;25.85;;;;;;;-1.04;62.09;100640.14;1727381;82;21049;-60
2022/03/25 02:04:24;;;;;;;46.60;28.15;;;;;;;-1.06;62.14;100644.41;1720540;82;22368;-60
2022/03/25 02:06:52;;;;;;;41.00;26.97;;;;;;;-1.07;62.22;100642.66;1727283;81;21574;-60
2022/03/25 02:09:19;;;;;;;40.60;25.77;;;;;;;-1.08;62.29;100647.36;1724019;82;21030;-60
2022/03/25 02:11:46;;;;;;;45.45;26.35;;;;;;;-1.06;62.50;100649.53;1722792;82;20997;-60
2022/03/25 02:14:13;;;;;;;46.60;26.30;;;;;;;-1.05;62.52;100651.25;1726765;82;21078;-60
2022/03/25 02:16:42;;;;;;;48.45;26.68;;;;;;;-1.03;62.55;100649.58;1717591;82;21717;-60
2022/03/25 02:19:13;;;;;;;49.20;27.05;;;;;;;-1.03;62.61;100649.58;1719814;82;21484;-60
2022/03/25 02:21:41;;;;;;;43.55;27.65;;;;;;;-1.01;62.65;100642.74;1717603;82;21005;-60
2022/03/25 02:24:10;;;;;;;47.08;27.52;;;;;;;-1.00;62.68;100641.92;1711324;82;20891;-60
2022/03/25 02:26:37;;;;;;;42.48;26.15;;;;;;;-1.00;62.76;100642.78;1708135;82;20969;-60
2022/03/25 02:29:05;;;;;;;48.25;28.17;;;;;;;-0.98;62.85;100643.67;1712126;81;21535;-60
2022/03/25 02:31:32;;;;;;;48.58;28.60;;;;;;;-0.99;62.82;100641.08;1718527;81;21018;-60
2022/03/25 02:34:03;;;;;;;46.40;28.47;;;;;;;-0.98;62.94;100640.22;1711496;81;21038;-60
2022/03/25 02:36:36;;;;;;;46.37;27.52;;;;;;;-0.97;63.08;100639.41;1718412;82;21009;-60
2022/03/25 02:39:05;;;;;;;46.85;27.45;;;;;;;-0.96;63.14;100637.27;1712198;82;20982;-60
2022/03/25 02:41:32;;;;;;;48.87;28.55;;;;;;;-0.96;63.16;100633.42;1716030;82;21527;-60
2022/03/25 02:44:18;;;;;;;45.92;28.20;;;;;;;-0.95;63.26;100639.02;1669667;84;21080;-60
2022/03/25 02:46:45;;;;;;;47.58;28.05;;;;;;;-0.96;63.28;100639.83;1672385;84;20957;-60
2022/03/25 02:49:13;;;;;;;45.48;28.38;;;;;;;-0.96;63.34;100639.83;1673288;84;20966;-60
2022/03/25 02:51:40;;;;;;;49.67;29.55;;;;;;;-0.96;63.43;100634.70;1662990;84;21041;-60
2022/03/25 02:54:08;;;;;;;50.38;29.60;;;;;;;-0.95;63.50;100635.17;1672987;84;21462;-60
2022/03/25 02:56:34;;;;;;;48.68;31.23;;;;;;;-0.93;63.57;100639.88;1668855;84;20966;-60
2022/03/25 02:59:01;;;;;;;48.10;30.88;;;;;;;-0.92;63.66;100627.52;1672913;85;21586;-60
2022/03/25 03:01:28;;;;;;;53.93;31.30;;;;;;;-0.88;63.79;100636.11;1667000;84;20986;-60
2022/03/25 03:03:55;;;;;;;47.58;31.15;;;;;;;-0.85;63.83;100631.88;1623761;87;21047;-59
2022/03/25 03:06:21;;;;;;;48.60;32.00;;;;;;;-0.83;63.97;100625.07;1627275;86;21530;-60
2022/03/25 03:08:49;;;;;;;55.50;30.30;;;;;;;-0.80;64.04;100625.11;1680822;84;21062;-60
2022/03/25 03:11:16;;;;;;;48.47;29.37;;;;;;;-0.77;64.05;100624.29;1674810;85;21008;-60
2022/03/25 03:13:44;;;;;;;48.83;31.17;;;;;;;-0.73;64.20;100616.67;1674347;85;20992;-60
2022/03/25 03:16:10;;;;;;;55.17;31.60;;;;;;;-0.71;64.16;100609.83;1673131;85;20946;-59
2022/03/25 03:18:37;;;;;;;56.85;30.32;;;;;;;-0.71;64.16;100609.83;1675568;85;21181;-60
2022/03/25 03:21:04;;;;;;;49.93;29.40;;;;;;;-0.66;64.21;100597.50;1678487;85;21123;-60
2022/03/25 03:23:30;;;;;;;56.68;30.88;;;;;;;-0.65;64.27;100603.92;1679174;84;22244;-60
2022/03/25 03:25:57;;;;;;;47.00;30.35;;;;;;;-0.63;64.33;100601.38;1680740;84;21148;-60
2022/03/25 03:28:24;;;;;;;48.75;30.52;;;;;;;-0.60;64.47;100598.86;1678292;85;20992;-60
2022/03/25 03:30:51;;;;;;;48.98;30.52;;;;;;;-0.57;64.47;100612.57;1667677;84;22263;-60
2022/03/25 03:33:17;;;;;;;48.50;30.23;;;;;;;-0.51;64.73;100613.92;1678394;85;21038;-60
2022/03/25 03:35:44;;;;;;;51.02;32.45;;;;;;;-0.51;64.71;100622.05;1657536;85;20989;-60
2022/03/25 03:38:11;;;;;;;51.20;30.90;;;;;;;-0.48;64.77;100620.80;1678284;84;21578;-59
2022/03/25 03:40:37;;;;;;;51.77;32.35;;;;;;;-0.48;64.83;100618.23;1683468;83;21031;-60
2022/03/25 03:43:04;;;;;;;54.30;31.73;;;;;;;-0.45;64.92;100614.41;1653506;85;21903;-60
2022/03/25 03:45:32;;;;;;;53.17;32.95;;;;;;;-0.41;64.99;100611.06;1660556;85;21526;-59
2022/03/25 03:47:59;;;;;;;55.43;31.82;;;;;;;-0.37;64.93;100612.80;1660775;85;21666;-60
2022/03/25 03:50:25;;;;;;;49.77;32.60;;;;;;;-0.35;65.00;100620.53;1668184;85;21015;-59
2022/03/25 03:52:52;;;;;;;48.17;31.83;;;;;;;-0.34;65.08;100615.40;1672050;84;20972;-60
2022/03/25 03:55:19;;;;;;;54.10;33.63;;;;;;;-0.32;65.04;100613.72;1665817;84;21069;-59
2022/03/25 03:57:45;;;;;;;61.30;34.60;;;;;;;-0.29;65.16;100624.02;1643178;85;21559;-60
2022/03/25 04:00:14;;;;;;;60.28;33.92;;;;;;;-0.26;65.18;100624.05;1659436;84;21089;-60
2022/03/25 04:02:44;;;;;;;54.42;33.50;;;;;;;-0.23;65.24;100615.52;1647911;86;21045;-60
2022/03/25 04:05:11;;;;;;;56.25;33.23;;;;;;;-0.17;65.32;100618.58;1667335;86;21030;-60
2022/03/25 04:07:48;;;;;;;58.53;32.97;;;;;;;-0.15;65.33;100620.75;1650516;85;21515;-60
2022/03/25 04:10:17;;;;;;;59.45;34.65;;;;;;;-0.14;65.30;100625.03;1645653;87;21001;-60
2022/03/25 04:12:44;;;;;;;55.50;33.50;;;;;;;-0.15;65.39;100615.62;1668480;85;21060;-60
2022/03/25 04:15:15;;;;;;;53.90;33.73;;;;;;;-0.17;65.40;100610.45;1637970;85;20990;-60
2022/03/25 04:17:45;;;;;;;63.83;34.18;;;;;;;-0.15;65.48;100610.48;1646435;85;20973;-60
2022/03/25 04:20:15;;;;;;;57.58;33.58;;;;;;;-0.16;65.52;100603.64;1636981;87;21103;-60
2022/03/25 04:22:43;;;;;;;59.70;34.67;;;;;;;-0.16;65.66;100608.34;1641692;85;21625;-60
2022/03/25 04:25:10;;;;;;;52.83;32.65;;;;;;;-0.14;65.67;100607.95;1666177;84;21093;-60
2022/03/25 04:27:55;;;;;;;57.83;32.23;;;;;;;-0.14;65.64;100605.77;1666980;84;21514;-60
2022/03/25 04:30:26;;;;;;;55.63;31.90;;;;;;;-0.15;65.69;100596.36;1619427;86;21101;-60
2022/03/25 04:32:54;;;;;;;49.10;31.70;;;;;;;-0.14;65.88;100601.92;1623720;86;21384;-60
2022/03/25 04:35:22;;;;;;;54.70;32.03;;;;;;;-0.10;65.91;100601.12;1630098;86;21688;-60
2022/03/25 04:37:49;;;;;;;57.27;33.13;;;;;;;-0.09;65.94;100595.14;1646417;85;21029;-60
2022/03/25 04:40:17;;;;;;;54.05;32.73;;;;;;;-0.06;65.94;100593.88;1645497;85;21894;-60
2022/03/25 04:42:49;;;;;;;54.25;31.87;;;;;;;-0.04;65.94;100596.05;1642028;86;21142;-59
2022/03/25 04:45:17;;;;;;;68.60;32.83;;;;;;;-0.01;65.92;100593.51;1654661;86;21487;-60
2022/03/25 04:47:45;;;;;;;59.30;32.93;;;;;;;-0.01;65.92;100590.94;1648766;85;21078;-60
2022/03/25 04:50:13;;;;;;;71.70;31.40;;;;;;;0.02;66.00;100593.96;1654321;85;20982;-60
2022/03/25 04:52:40;;;;;;;64.05;33.38;;;;;;;0.06;66.06;100592.73;1659742;85;23129;-60
2022/03/25 04:55:08;;;;;;;58.83;30.20;;;;;;;0.16;66.08;100594.52;1637878;86;20962;-60
2022/03/25 04:57:35;;;;;;;54.93;30.85;;;;;;;0.31;66.13;100602.81;1624523;86;21086;-60
2022/03/25 05:00:02;;;;;;;79.92;34.13;;;;;;;0.49;66.11;100602.52;1657309;85;21203;-59
2022/03/25 05:02:29;;;;;;;77.62;35.90;;;;;;;0.65;66.02;100595.36;1661999;85;21140;-60
2022/03/25 05:04:55;;;;;;;68.25;34.50;;;;;;;0.81;65.97;100584.73;1654636;85;21546;-60
2022/03/25 05:07:22;;;;;;;74.45;33.73;;;;;;;1.02;66.10;100595.16;1669997;84;20977;-60
2022/03/25 05:09:49;;;;;;;62.13;32.45;;;;;;;1.28;66.09;100586.70;1681607;84;22290;-57
2022/03/25 05:12:16;;;;;;;57.73;32.60;;;;;;;1.45;65.94;100577.33;1681678;84;20962;-59
2022/03/25 05:14:43;;;;;;;57.53;31.80;;;;;;;1.66;66.05;100588.58;1683054;84;21091;-59
2022/03/25 05:17:09;;;;;;;66.47;34.27;;;;;;;1.88;65.97;100584.34;1679183;84;21209;-59
2022/03/25 05:19:36;;;;;;;67.85;33.92;;;;;;;2.13;66.19;100589.07;1682602;84;21081;-59
2022/03/25 05:22:04;;;;;;;69.47;35.13;;;;;;;2.54;66.06;100590.81;1679210;84;21430;-60
2022/03/25 05:24:30;;;;;;;55.33;33.45;;;;;;;2.78;65.87;100597.24;1688958;83;21067;-60
2022/03/25 05:26:59;;;;;;;60.37;35.23;;;;;;;3.14;65.83;100600.61;1682042;84;21017;-59
2022/03/25 05:29:27;;;;;;;49.63;32.83;;;;;;;3.54;65.78;100595.30;1686240;82;21573;-59
2022/03/25 05:31:55;;;;;;;54.15;32.85;;;;;;;3.87;65.63;100593.41;1684879;83;21095;-61
2022/03/25 05:34:22;;;;;;;52.88;31.90;;;;;;;4.19;65.62;100591.45;1683952;83;21566;-60
2022/03/25 05:36:49;;;;;;;50.55;33.78;;;;;;;4.48;65.40;100586.07;1683103;84;21031;-60
2022/03/25 05:39:15;;;;;;;61.65;37.90;;;;;;;4.79;65.58;100583.61;1678083;83;21115;-60
2022/03/25 05:41:42;;;;;;;61.02;42.48;;;;;;;5.30;65.73;100577.47;1687469;83;20921;-61
2022/03/25 05:44:09;;;;;;;61.53;39.00;;;;;;;5.85;65.66;100574.14;1692155;83;21022;-62
2022/03/25 05:46:36;;;;;;;54.93;33.75;;;;;;;6.29;65.56;100572.65;1697938;84;22182;-60
2022/03/25 05:49:03;;;;;;;41.47;29.23;;;;;;;6.56;65.03;100580.88;1697947;84;20990;-60
2022/03/25 05:51:32;;;;;;;44.60;29.63;;;;;;;7.05;65.60;100582.56;1696805;83;21026;-60
2022/03/25 05:53:59;;;;;;;40.40;29.60;;;;;;;7.47;65.33;100577.41;1694392;83;21328;-60
2022/03/25 05:56:25;;;;;;;45.12;30.97;;;;;;;8.01;65.39;100570.57;1696609;83;20982;-60
2022/03/25 05:58:52;;;;;;;42.43;28.60;;;;;;;8.39;65.11;100565.80;1698047;83;21080;-60
2022/03/25 06:01:22;;;;;;;70.87;33.27;;;;;;;8.61;64.49;100568.72;1695864;83;20982;-61
2022/03/25 06:03:49;;;;;;;50.28;32.83;;;;;;;8.82;64.72;100565.13;1693354;83;20957;-60
2022/03/25 06:06:15;;;;;;;43.68;32.08;;;;;;;8.96;64.42;100558.69;1704248;83;20961;-60
2022/03/25 06:08:42;;;;;;;43.90;29.40;;;;;;;9.16;64.28;100556.83;1703452;82;21022;-61
2022/03/25 06:11:09;;;;;;;43.53;32.03;;;;;;;9.31;63.76;100552.07;1699660;83;21118;-60
2022/03/25 06:13:35;;;;;;;47.43;33.30;;;;;;;9.50;63.86;100558.91;1706985;82;20942;-60
2022/03/25 06:16:02;;;;;;;58.30;36.68;;;;;;;9.87;64.56;100559.95;1694452;83;20993;-61
2022/03/25 06:18:29;;;;;;;54.13;37.25;;;;;;;10.30;64.32;100558.61;1700891;83;21008;-61
2022/03/25 06:20:55;;;;;;;53.87;37.73;;;;;;;10.47;64.04;100565.45;1702503;83;21539;-60
2022/03/25 06:23:22;;;;;;;52.80;38.58;;;;;;;10.49;63.33;100568.00;1697490;84;21792;-60
2022/03/25 06:25:49;;;;;;;56.83;40.15;;;;;;;10.53;63.64;100575.69;1697552;84;21061;-61
2022/03/25 06:28:16;;;;;;;51.08;38.17;;;;;;;10.75;63.70;100576.24;1688764;84;25551;-60
2022/03/25 06:30:43;;;;;;;51.00;39.10;;;;;;;10.96;63.66;100575.51;1696305;84;21064;-61
2022/03/25 06:33:12;;;;;;;60.33;41.37;;;;;;;11.07;63.38;100571.67;1698690;83;20924;-60
2022/03/25 06:38:20;;;;;;;61.60;41.85;;;;;;;11.45;63.08;100572.02;1838689;75;21985;-60
2022/03/25 06:40:47;;;;;;;72.65;42.50;;;;;;;11.51;63.03;100571.36;1797833;78;21052;-63
2022/03/25 06:43:14;;;;;;;56.75;43.38;;;;;;;11.72;63.05;100560.98;1803057;78;21305;-63
2022/03/25 06:45:41;;;;;;;69.37;43.98;;;;;;;11.73;62.25;100562.20;1813672;78;26851;-60
2022/03/25 06:48:08;;;;;;;51.83;42.53;;;;;;;11.77;62.35;100563.81;1802030;78;20938;-58
2022/03/25 06:50:43;;;;;;;53.87;42.95;;;;;;;11.82;61.94;100564.48;1782164;80;20901;-60
2022/03/25 06:53:09;;;;;;;53.42;42.25;;;;;;;11.96;62.04;100564.41;1738133;80;20944;-61
2022/03/25 06:55:37;;;;;;;73.07;43.23;;;;;;;11.97;61.36;100566.14;1780632;80;21900;-59
2022/03/25 06:58:09;;;;;;;203.22;53.90;;;;;;;11.96;61.27;100568.34;1786050;80;20985;-60
2022/03/25 07:00:39;;;;;;;68.60;44.67;;;;;;;11.86;61.03;100564.78;1764290;80;21042;-61
2022/03/25 07:03:08;;;;;;;74.65;44.25;;;;;;;12.08;61.19;100573.11;1743888;81;21144;-61
2022/03/25 07:05:36;;;;;;;95.30;45.78;;;;;;;12.20;61.08;100569.98;1714404;82;21077;-60
2022/03/25 07:08:05;;;;;;;56.48;44.95;;;;;;;12.33;60.78;100570.35;1778468;79;21171;-60
2022/03/25 07:10:33;;;;;;;59.85;44.13;;;;;;;12.42;60.50;100566.50;1781845;79;21371;-59
2022/03/25 07:13:01;;;;;;;56.15;42.40;;;;;;;12.51;60.54;100568.73;1759307;80;21066;-60
2022/03/25 07:15:27;;;;;;;62.73;42.85;;;;;;;12.33;60.29;100574.74;1759030;80;20952;-60
2022/03/25 07:17:54;;;;;;;60.88;40.92;;;;;;;12.20;60.22;100569.98;1746668;80;21056;-60
2022/03/25 07:20:25;;;;;;;54.20;40.55;;;;;;;12.06;60.30;100574.46;1769951;80;21090;-60
2022/03/25 07:22:52;;;;;;;60.65;42.03;;;;;;;11.72;59.44;100567.52;1784173;80;21090;-59
2022/03/25 07:25:20;;;;;;;55.12;38.17;;;;;;;11.39;59.78;100576.56;1740444;81;21120;-60
2022/03/25 07:27:47;;;;;;;;;;;;;;;11.34;59.88;100578.52;1782824;78;21505;-60
2022/03/25 07:30:16;;;;;;;61.63;39.23;;;;;;;11.01;59.25;100582.31;1755514;80;20177;-59
2022/03/25 07:32:43;;;;;;;46.55;36.28;;;;;;;10.89;59.71;100588.38;1772881;80;21017;-60
2022/03/25 07:35:10;;;;;;;75.70;37.65;;;;;;;10.78;59.16;100586.59;1760430;80;21009;-60
2022/03/25 07:37:39;;;;;;;57.98;39.00;;;;;;;10.60;59.28;100592.45;1767774;80;21016;-59
2022/03/25 07:40:09;;;;;;;50.33;37.85;;;;;;;10.55;59.16;100589.98;1741200;80;21016;-59
2022/03/25 07:42:38;;;;;;;107.78;42.20;;;;;;;10.41;59.02;100593.05;1771709;80;22230;-60
2022/03/25 07:45:08;;;;;;;47.98;35.33;;;;;;;10.36;58.90;100588.42;1773878;80;21108;-59
2022/03/25 07:47:42;;;;;;;45.60;34.35;;;;;;;10.36;58.79;100587.11;1765646;80;20991;-59
2022/03/25 07:50:11;;;;;;;53.30;38.65;;;;;;;10.30;58.78;100581.64;1776502;80;20991;-60
2022/03/25 07:52:39;;;;;;;43.63;33.95;;;;;;;10.36;58.97;100584.96;1786731;80;21064;-61
2022/03/25 07:55:31;;;;;;;54.55;34.18;;;;;;;10.53;58.94;100587.44;1777460;79;20954;-60
2022/03/25 07:57:58;;;;;;;60.23;35.20;;;;;;;10.70;58.92;100579.03;1810955;78;21119;-60
2022/03/25 08:00:25;;;;;;;56.35;35.03;;;;;;;10.79;58.76;100585.70;1813412;78;20957;-60
2022/03/25 08:02:53;;;;;;;55.17;35.75;;;;;;;10.88;58.53;100586.67;1767959;80;21602;-60
2022/03/25 08:05:21;;;;;;;44.00;33.63;;;;;;;10.95;58.69;100588.61;1805352;78;21472;-60
2022/03/25 08:07:55;;;;;;;49.15;32.73;;;;;;;11.05;58.58;100589.16;1810462;78;20919;-60
2022/03/25 08:10:29;;;;;;;43.45;29.95;;;;;;;11.11;58.54;100587.62;1776784;80;21053;-60
2022/03/25 08:12:56;;;;;;;47.33;29.50;;;;;;;11.08;58.17;100591.66;1807224;79;20939;-60
2022/03/25 08:15:27;;;;;;;38.92;27.13;;;;;;;11.07;58.17;100587.36;1807516;79;21310;-61
2022/03/25 08:18:05;;;;;;;48.52;28.12;;;;;;;11.09;58.03;100599.89;1797742;79;21055;-61
2022/03/25 08:20:39;;;;;;;93.50;33.95;;;;;;;11.10;57.72;100601.61;1784091;79;20992;-59
2022/03/25 08:23:09;;;;;;;88.37;30.85;;;;;;;11.04;57.92;100596.61;1818424;78;21108;-59
2022/03/25 08:28:22;;;;;;;32.35;24.72;;;;;;;11.03;57.71;100585.73;1816213;78;21059;-60
2022/03/25 08:30:49;;;;;;;42.88;26.87;;;;;;;11.06;57.63;100585.63;1816962;78;21584;-60
2022/03/25 08:33:27;;;;;;;33.95;24.57;;;;;;;10.91;57.21;100590.48;1765051;80;21666;-60
2022/03/25 08:35:57;;;;;;;35.23;25.15;;;;;;;10.62;56.63;100594.56;1769639;79;21617;-60
2022/03/25 08:38:24;;;;;;;32.08;25.25;;;;;;;10.33;56.92;100589.83;1769444;79;21253;-60
2022/03/25 08:40:51;;;;;;;49.30;25.95;;;;;;;10.32;57.15;100597.72;1788378;79;20962;-60
2022/03/25 08:43:18;;;;;;;36.95;25.72;;;;;;;10.55;57.23;100585.22;1791006;78;21025;-61
2022/03/25 08:45:45;;;;;;;38.75;24.40;;;;;;;10.55;57.23;100585.22;1815680;78;20938;-60
2022/03/25 08:48:12;;;;;;;43.17;23.70;;;;;;;10.62;57.00;100606.32;1790277;79;21628;-60
2022/03/25 08:50:39;;;;;;;;;;;;;;;10.60;56.86;100605.50;1815835;78;20989;-60
2022/03/25 08:53:09;;;;;;;33.33;23.07;;;;;;;10.66;56.96;100596.16;1786826;80;20088;-59
2022/03/25 08:55:37;;;;;;;32.70;21.25;;;;;;;10.93;56.86;100595.67;1784798;79;20990;-60
2022/03/25 08:58:05;;;;;;;27.73;21.70;;;;;;;10.84;55.79;100594.23;1785570;79;21139;-60
2022/03/25 09:00:32;;;;;;;33.88;23.38;;;;;;;10.66;56.24;100600.92;1778575;78;21579;-60
2022/03/25 09:03:00;;;;;;;31.12;21.10;;;;;;;10.74;56.50;100594.14;1780770;79;20989;-59
2022/03/25 09:05:27;;;;;;;;;;;;;;;10.95;56.86;100589.92;1784567;79;21595;-59
2022/03/25 09:07:57;;;;;;;;;;;;;;;11.17;56.15;100583.48;1780036;79;20186;-60
2022/03/25 09:10:25;;;;;;;29.75;19.42;;;;;;;11.07;56.06;100589.97;1778676;79;20119;-59
2022/03/25 09:12:54;;;;;;;28.90;19.23;;;;;;;11.18;56.08;100598.28;1790690;78;21590;-60
2022/03/25 09:15:22;;;;;;;30.23;20.43;;;;;;;11.31;56.08;100599.52;1786309;79;20993;-60
2022/03/25 09:17:49;;;;;;;32.15;19.77;;;;;;;11.26;55.13;100598.86;1778525;79;20937;-60
2022/03/25 09:20:17;;;;;;;33.40;18.87;;;;;;;11.25;55.14;100590.59;1780551;79;28726;-60
2022/03/25 09:22:44;;;;;;;35.45;19.17;;;;;;;11.23;55.15;100593.75;1779118;79;21056;-60
2022/03/25 09:25:13;;;;;;;42.23;23.83;;;;;;;11.18;55.44;100593.05;1783490;78;21067;-60
2022/03/25 09:27:41;;;;;;;40.48;21.07;;;;;;;11.31;55.51;100591.67;1783257;78;21018;-60
2022/03/25 09:30:10;;;;;;;48.83;21.70;;;;;;;11.46;55.31;100591.59;1794075;79;21558;-60
2022/03/25 09:32:38;;;;;;;46.88;21.42;;;;;;;11.59;55.37;100588.05;1789506;79;20966;-61
2022/03/25 09:35:08;;;;;;;43.23;22.17;;;;;;;11.72;55.28;100589.30;1774918;79;26435;-61
2022/03/25 09:37:42;;;;;;;38.92;22.30;;;;;;;11.82;55.15;100588.04;1782625;79;21116;-60
2022/03/25 09:40:20;;;;;;;45.28;22.98;;;;;;;11.84;54.95;100586.20;1787527;79;21137;-59
2022/03/25 09:42:50;;;;;;;35.25;22.02;;;;;;;11.86;54.97;100588.80;1785443;79;20926;-60
2022/03/25 09:45:18;;;;;;;35.98;20.68;;;;;;;11.96;54.85;100589.28;1786399;79;21090;-60
2022/03/25 09:47:47;;;;;;;33.13;20.90;;;;;;;12.00;54.56;100593.50;1749926;79;21009;-60
2022/03/25 09:50:23;;;;;;;26.95;20.45;;;;;;;11.94;54.29;100596.36;1784996;79;21068;-60
2022/03/25 09:52:56;;;;;;;72.12;23.98;;;;;;;11.85;54.15;100593.19;1792766;79;20946;-63
2022/03/25 09:55:21;;;;;;;49.27;23.62;;;;;;;11.84;54.47;100591.42;1791328;79;21534;-60
2022/03/25 09:57:50;;;;;;;32.40;19.98;;;;;;;12.03;54.47;100586.83;1771803;80;21010;-60
2022/03/25 10:00:19;;;;;;;48.63;23.22;;;;;;;12.10;53.63;100596.16;1772289;80;21058;-60
2022/03/25 10:02:47;;;;;;;33.00;21.60;;;;;;;11.86;53.71;100594.88;1774491;80;21293;-60
2022/03/25 10:05:18;;;;;;;33.85;20.88;;;;;;;11.92;53.72;100594.25;1775705;80;21574;-61
2022/03/25 10:07:51;;;;;;;42.93;21.25;;;;;;;11.73;52.55;100600.14;1772661;80;21605;-60
2022/03/25 10:10:54;;;;;;;35.43;22.17;;;;;;;11.86;53.67;100590.95;1863560;74;22697;-60
2022/03/25 10:13:21;;;;;;;34.75;21.27;;;;;;;12.02;54.02;100578.59;1828193;77;20992;-60
2022/03/25 10:15:48;;;;;;;34.07;21.33;;;;;;;12.34;53.48;100577.74;1825451;77;21572;-60
2022/03/25 10:18:19;;;;;;;42.55;21.50;;;;;;;12.34;53.48;100577.74;1827035;77;21405;-59
2022/03/25 10:20:45;;;;;;;69.50;24.95;;;;;;;12.48;53.75;100576.72;1813189;77;20909;-62
2022/03/25 10:23:18;;;;;;;36.00;22.52;;;;;;;12.64;53.72;100580.41;1802734;77;20920;-60
2022/03/25 10:25:53;;;;;;;32.40;20.82;;;;;;;12.63;53.06;100581.33;1805824;78;20984;-61
2022/03/25 10:28:28;;;;;;;46.58;21.75;;;;;;;12.57;53.47;100578.09;1838193;77;21049;-61
2022/03/25 10:31:07;;;;;;;38.70;23.07;;;;;;;12.69;53.47;100581.06;1819583;77;20991;-60
2022/03/25 10:33:54;;;;;;;38.65;20.77;;;;;;;12.81;53.42;100573.59;1769209;80;21004;-60
2022/03/25 10:36:23;;;;;;;;;;;;;;;12.89;53.41;100574.12;1774950;80;20997;-61
2022/03/25 10:39:11;;;;;;;42.53;20.82;;;;;;;13.01;53.17;100572.27;1788929;78;20489;-61
2022/03/25 10:41:50;;;;;;;33.08;18.80;;;;;;;13.04;53.20;100569.51;1763969;79;21628;-61
2022/03/25 10:44:25;;;;;;;34.15;20.32;;;;;;;13.04;52.73;100562.11;1753239;79;20988;-61
2022/03/25 10:46:53;;;;;;;36.90;21.33;;;;;;;13.04;52.98;100556.86;1724987;80;21055;-61
2022/03/25 10:49:28;;;;;;;59.50;23.62;;;;;;;13.07;53.03;100561.97;1762299;79;21117;-60
2022/03/25 10:51:58;;;;;;;32.33;20.92;;;;;;;13.14;52.92;100559.02;1746056;79;21000;-60
2022/03/25 10:54:28;;;;;;;36.63;17.87;;;;;;;13.04;52.14;100566.89;1758846;79;21084;-60
2022/03/25 10:56:59;;;;;;;25.90;17.62;;;;;;;13.09;52.64;100559.67;1757958;79;20981;-60
2022/03/25 10:59:34;;;;;;;39.58;19.77;;;;;;;13.19;52.48;100564.91;1766511;79;21110;-60
2022/03/25 11:02:07;;;;;;;30.08;18.87;;;;;;;13.29;52.54;100570.61;1756462;79;20933;-60
2022/03/25 11:04:35;;;;;;;26.12;16.77;;;;;;;13.41;52.69;100563.95;1758882;79;21035;-60
2022/03/25 11:07:03;;;;;;;30.37;18.75;;;;;;;13.54;52.44;100556.39;1761935;79;21108;-60
2022/03/25 11:09:31;;;;;;;27.48;17.07;;;;;;;13.50;52.31;100558.31;1755542;79;21014;-59
2022/03/25 11:12:00;;;;;;;32.08;18.67;;;;;;;13.50;52.14;100547.81;1760392;79;20996;-60
2022/03/25 11:14:28;;;;;;;28.47;17.77;;;;;;;13.57;52.26;100550.53;1760477;79;20991;-60
2022/03/25 11:16:59;;;;;;;53.02;17.62;;;;;;;13.68;52.32;100546.09;1792436;80;20980;-60
2022/03/25 11:19:27;;;;;;;40.43;17.12;;;;;;;13.82;52.09;100555.95;1757088;80;21513;-61
2022/03/25 11:21:57;;;;;;;29.20;16.65;;;;;;;13.85;51.74;100553.17;1734614;80;21609;-60
2022/03/25 11:24:48;;;;;;;43.60;16.00;;;;;;;13.85;51.96;100550.55;1769255;79;20980;-60